Time;durP1;ratioP1;P1;durP2;ratioP2;P2;SDS_P1;SDS_P2;PMS_P1;PMS_P2;Temp;Humidity;BMP_temperature;BMP_pressure;BME280_temperature;BME280_humidity;BME280_pressure;Samples;Min_cycle;Max_cycle;Signal;HPM_P1;HPM_P2
2021/04/05 00:02:03;;;;;;;9.73;5.82;;;;;;;5.96;40.86;99908.25;4473891;31;34110;-89
2021/04/05 00:04:30;;;;;;;13.62;6.30;;;;;;;6.03;40.86;99902.37;4461476;31;33543;-89
2021/04/05 00:06:58;;;;;;;10.57;6.37;;;;;;;5.81;41.30;99900.16;4473949;31;33119;-90
2021/04/05 00:09:25;;;;;;;12.13;6.40;;;;;;;5.83;41.52;99901.06;4473827;31;33463;-90
2021/04/05 00:11:52;;;;;;;11.43;7.03;;;;;;;5.71;41.50;99898.22;4473915;31;34076;-90
2021/04/05 00:14:19;;;;;;;11.00;6.60;;;;;;;5.86;41.34;99897.72;4460904;31;34329;-90
2021/04/05 00:16:47;;;;;;;12.20;6.60;;;;;;;5.77;41.09;99903.53;4461607;31;32989;-90
2021/04/05 00:19:14;;;;;;;9.75;6.57;;;;;;;5.84;40.94;99896.78;4473908;31;34380;-89
2021/04/05 00:21:41;;;;;;;9.63;6.70;;;;;;;5.83;40.80;99889.84;4473658;31;33780;-90
2021/04/05 00:24:10;;;;;;;13.07;6.70;;;;;;;5.76;41.09;99888.88;4473725;31;33857;-89
2021/04/05 00:26:37;;;;;;;12.52;6.95;;;;;;;5.78;40.84;99881.16;4473853;31;33850;-89
2021/04/05 00:29:05;;;;;;;12.50;7.82;;;;;;;5.90;40.73;99877.13;4461153;31;34069;-90
2021/04/05 00:31:32;;;;;;;14.30;7.90;;;;;;;5.81;40.89;99874.34;4474057;31;35331;-90
2021/04/05 00:33:59;;;;;;;13.95;6.85;;;;;;;5.84;40.35;99877.03;4473651;31;33816;-89
2021/04/05 00:36:27;;;;;;;10.30;6.25;;;;;;;5.85;40.51;99876.19;4473814;31;35150;-90
2021/04/05 00:38:54;;;;;;;12.70;6.85;;;;;;;5.97;40.47;99867.78;4486818;31;33798;-89
2021/04/05 00:41:22;;;;;;;11.07;6.32;;;;;;;5.84;40.41;99864.13;4473881;31;35689;-90
2021/04/05 00:43:50;;;;;;;11.23;6.72;;;;;;;5.75;40.80;99871.63;4473687;31;34993;-90
2021/04/05 00:46:23;;;;;;;10.85;6.28;;;;;;;5.80;40.71;99867.44;4474016;31;33292;-90
2021/04/05 00:48:51;;;;;;;12.45;6.15;;;;;;;5.66;41.05;99874.03;4473928;31;34244;-90
2021/04/05 00:51:21;;;;;;;11.12;5.93;;;;;;;5.81;40.86;99871.78;4486522;31;34053;-90
2021/04/05 00:53:49;;;;;;;10.95;5.72;;;;;;;5.87;40.65;99864.16;4473405;31;34812;-90
2021/04/05 00:56:19;;;;;;;8.98;5.47;;;;;;;5.66;41.31;99866.28;4461201;31;32961;-90
2021/04/05 00:58:48;;;;;;;9.38;5.37;;;;;;;5.70;41.43;99862.06;4461221;31;33267;-89
2021/04/05 01:01:19;;;;;;;9.57;4.87;;;;;;;5.51;41.70;99863.41;4460956;31;33837;-90
2021/04/05 01:03:48;;;;;;;9.73;5.80;;;;;;;5.44;41.74;99852.06;4461073;31;33632;-89
2021/04/05 01:06:27;;;;;;;10.52;5.93;;;;;;;5.51;41.78;99853.09;4473516;31;32806;-89
2021/04/05 01:08:55;;;;;;;10.68;5.68;;;;;;;5.40;41.97;99844.25;4461041;31;33309;-90
2021/04/05 01:11:29;;;;;;;13.13;6.78;;;;;;;5.31;41.97;99846.63;4460728;31;34885;-89
2021/04/05 01:13:57;;;;;;;11.52;5.90;;;;;;;5.37;41.82;99846.78;4486788;31;34254;-89
2021/04/05 01:16:29;;;;;;;10.57;6.53;;;;;;;5.36;41.72;99848.50;4486753;31;33875;-89
2021/04/05 01:18:57;;;;;;;12.50;6.50;;;;;;;5.32;41.97;99845.81;4473866;31;33394;-89
2021/04/05 01:21:25;;;;;;;10.07;6.15;;;;;;;5.20;42.13;99840.37;4473598;31;35291;-89
2021/04/05 01:23:52;;;;;;;8.95;6.15;;;;;;;5.17;42.30;99845.47;4473728;31;35318;-90
2021/04/05 01:26:19;;;;;;;8.50;5.65;;;;;;;5.21;42.07;99842.13;4460719;31;34206;-90
2021/04/05 01:28:47;;;;;;;9.77;5.53;;;;;;;5.14;42.11;99842.81;4473566;31;34211;-89
2021/04/05 01:31:14;;;;;;;8.38;5.35;;;;;;;5.03;42.04;99841.72;4473919;31;34366;-89
2021/04/05 01:33:42;;;;;;;8.38;5.62;;;;;;;4.97;42.01;99846.75;4486428;31;35243;-89
2021/04/05 01:36:16;;;;;;;9.73;5.62;;;;;;;5.11;41.82;99842.78;4473571;31;33398;-89
2021/04/05 01:38:53;;;;;;;11.02;6.37;;;;;;;5.48;41.55;99837.56;4492420;31;148976;-88
2021/04/05 01:41:26;;;;;;;9.27;5.40;;;;;;;5.48;41.55;99837.56;4480282;32;33329;-90
2021/04/05 01:43:54;;;;;;;10.02;5.62;;;;;;;5.00;42.18;99826.19;4480502;32;33799;-89
2021/04/05 01:46:22;;;;;;;9.90;5.60;;;;;;;4.77;42.74;99823.09;4467168;32;35208;-90
2021/04/05 01:48:49;;;;;;;9.95;5.97;;;;;;;4.72;42.75;99825.56;4454299;32;34257;-90
2021/04/05 01:51:21;;;;;;;11.00;6.15;;;;;;;4.60;42.94;99820.13;4454671;32;32712;-90
2021/04/05 01:53:50;;;;;;;7.75;5.20;;;;;;;4.57;42.84;99820.03;4467153;32;33971;-90
2021/04/05 01:56:18;;;;;;;11.75;5.53;;;;;;;4.60;43.21;99820.13;4454170;32;34767;-89
2021/04/05 01:58:48;;;;;;;10.05;5.70;;;;;;;4.74;43.06;99823.03;4466877;32;33445;-90
2021/04/05 02:01:19;;;;;;;8.00;5.28;;;;;;;4.69;43.23;99828.06;4467074;32;34718;-89
2021/04/05 02:03:47;;;;;;;12.85;6.07;;;;;;;4.76;43.04;99822.22;4466973;32;35132;-89
2021/04/05 02:06:19;;;;;;;7.87;5.55;;;;;;;4.78;43.05;99825.69;4467087;32;34677;-90
2021/04/05 02:08:47;;;;;;;13.43;6.37;;;;;;;4.85;42.78;99825.84;4467246;32;33802;-89
2021/04/05 02:11:17;;;;;;;11.98;5.68;;;;;;;4.75;43.12;99814.47;4466986;32;33408;-90
2021/04/05 02:13:46;;;;;;;9.00;5.80;;;;;;;4.72;42.94;99815.25;4467093;32;33436;-90
2021/04/05 02:16:14;;;;;;;10.75;5.78;;;;;;;4.63;42.84;99804.75;4466671;32;35313;-89
2021/04/05 02:18:42;;;;;;;8.85;5.53;;;;;;;4.69;43.45;99810.03;4453752;32;33632;-89
2021/04/05 02:21:22;;;;;;;9.32;5.62;;;;;;;4.70;43.69;99810.91;4454000;32;34026;-89
2021/04/05 02:23:50;;;;;;;12.07;6.45;;;;;;;4.54;44.11;99801.94;4479779;32;33637;-89
2021/04/05 02:26:20;;;;;;;13.20;6.05;;;;;;;4.61;43.41;99798.66;4466599;32;34383;-89
2021/04/05 02:28:50;;;;;;;9.38;5.80;;;;;;;4.37;44.19;99803.25;4479626;32;35210;-89
2021/04/05 02:31:20;;;;;;;10.15;5.72;;;;;;;4.36;44.07;99793.78;4467158;32;33574;-90
2021/04/05 02:33:49;;;;;;;9.25;5.40;;;;;;;4.25;44.38;99795.22;4466610;32;34008;-88
2021/04/05 02:36:18;;;;;;;10.20;6.57;;;;;;;4.50;43.91;99787.25;4466533;32;35085;-89
2021/04/05 02:38:47;;;;;;;12.13;5.87;;;;;;;4.60;43.73;99786.63;4466636;32;34478;-89
2021/04/05 02:41:16;;;;;;;9.32;5.53;;;;;;;4.39;44.31;99778.41;4466883;32;34792;-89
2021/04/05 02:43:45;;;;;;;10.77;5.40;;;;;;;4.53;43.69;99777.03;4466734;32;34900;-89
2021/04/05 02:46:18;;;;;;;9.50;5.60;;;;;;;4.39;43.92;99780.09;4479677;32;35337;-89
2021/04/05 02:48:48;;;;;;;;;;;;;;;4.46;43.87;99770.00;4476138;32;35107;-89
2021/04/05 02:51:17;;;;;;;8.63;5.30;;;;;;;4.29;43.99;99763.56;4456635;32;34385;-89
2021/04/05 02:53:49;;;;;;;8.27;4.97;;;;;;;4.46;44.04;99767.41;4456535;32;33234;-89
2021/04/05 02:56:18;;;;;;;11.23;5.28;;;;;;;4.45;44.12;99768.25;4456335;32;34705;-89
2021/04/05 02:58:50;;;;;;;8.18;4.93;;;;;;;4.57;44.06;99763.38;4456103;32;32877;-89
2021/04/05 03:01:18;;;;;;;10.63;4.80;;;;;;;4.43;44.43;99772.50;4430957;32;33080;-89
2021/04/05 03:03:46;;;;;;;9.63;5.60;;;;;;;4.28;44.57;99772.13;4443540;32;33344;-89
2021/04/05 03:06:20;;;;;;;10.02;5.82;;;;;;;4.36;44.63;99773.19;4443748;32;34095;-89
2021/04/05 03:08:48;;;;;;;7.40;5.15;;;;;;;4.30;44.68;99767.91;4456326;32;33647;-89
2021/04/05 03:11:17;;;;;;;11.00;6.15;;;;;;;4.29;44.69;99765.25;4456093;32;32983;-89
2021/04/05 03:13:45;;;;;;;10.73;5.95;;;;;;;4.31;44.75;99761.03;4456325;32;33104;-89
2021/04/05 03:16:18;;;;;;;9.57;5.95;;;;;;;4.30;44.77;99765.31;4456608;32;34774;-89
2021/04/05 03:18:46;;;;;;;12.63;5.60;;;;;;;4.28;44.91;99766.97;4456027;32;33603;-89
2021/04/05 03:21:15;;;;;;;18.23;6.20;;;;;;;4.34;44.80;99756.81;4456192;32;31941;-89
2021/04/05 03:23:43;;;;;;;11.32;5.97;;;;;;;4.19;45.06;99753.88;4456187;32;34631;-89
2021/04/05 03:26:10;;;;;;;11.63;5.95;;;;;;;4.25;44.81;99748.00;4468949;32;34502;-89
2021/04/05 03:28:39;;;;;;;9.25;5.37;;;;;;;4.17;45.17;99740.09;4456177;32;35155;-89
2021/04/05 03:31:20;;;;;;;7.78;5.37;;;;;;;4.31;45.03;99732.69;4470331;32;33451;-89
2021/04/05 03:33:56;;;;;;;8.82;5.45;;;;;;;4.24;44.66;99726.53;4456409;32;35332;-89
2021/04/05 03:36:29;;;;;;;9.85;6.37;;;;;;;4.09;45.56;99726.16;4456169;32;33861;-89
2021/04/05 03:39:00;;;;;;;12.40;5.43;;;;;;;4.33;44.58;99716.44;4456195;32;33348;-89
2021/04/05 03:41:33;;;;;;;8.77;5.85;;;;;;;4.38;44.73;99711.41;4456178;32;34547;-87
2021/04/05 03:44:12;;;;;;;10.35;5.87;;;;;;;4.25;44.67;99712.84;4470113;32;34213;-88
2021/04/05 03:46:40;;;;;;;11.77;6.28;;;;;;;3.98;45.47;99712.19;4469092;32;34001;-89
2021/04/05 03:49:29;;;;;;;11.63;5.95;;;;;;;3.93;45.69;99714.62;4456460;32;33144;-89
2021/04/05 03:52:12;;;;;;;9.63;5.80;;;;;;;4.06;45.51;99710.69;4469915;32;34350;-89
2021/04/05 03:54:44;;;;;;;13.00;6.10;;;;;;;3.97;45.65;99708.72;4470049;32;34289;-89
2021/04/05 03:57:12;;;;;;;10.18;6.55;;;;;;;3.94;45.83;99703.53;4455901;32;34514;-89
2021/04/05 03:59:44;;;;;;;9.95;6.05;;;;;;;3.94;45.79;99707.81;4468742;32;33833;-89
2021/04/05 04:02:15;;;;;;;13.27;6.28;;;;;;;4.04;45.60;99702.06;4468341;32;34200;-90
2021/04/05 04:04:54;;;;;;;8.23;5.72;;;;;;;3.96;45.42;99693.25;4456510;32;33936;-88
2021/04/05 04:07:32;;;;;;;13.68;6.43;;;;;;;3.79;45.95;99691.97;4455898;32;34272;-88
2021/04/05 04:10:00;;;;;;;9.80;5.57;;;;;;;4.01;45.64;99689.09;4456938;32;35204;-88
2021/04/05 04:12:28;;;;;;;11.55;6.78;;;;;;;4.01;45.75;99689.09;4469002;32;34312;-88
2021/04/05 04:14:56;;;;;;;13.07;6.78;;;;;;;3.85;46.15;99674.97;4456143;32;33939;-88
2021/04/05 04:17:24;;;;;;;11.00;6.25;;;;;;;3.94;45.98;99676.91;4443498;32;34174;-90
2021/04/05 04:19:52;;;;;;;11.88;6.10;;;;;;;3.86;46.37;99678.44;4455911;32;34267;-90
2021/04/05 04:22:19;;;;;;;10.85;6.37;;;;;;;3.99;45.64;99672.75;4456162;32;34232;-88
2021/04/05 04:24:47;;;;;;;11.57;6.40;;;;;;;3.92;45.95;99668.31;4443446;32;33096;-87
2021/04/05 04:27:17;;;;;;;13.60;6.87;;;;;;;3.77;46.36;99685.94;4455851;32;34880;-90
2021/04/05 04:29:54;;;;;;;13.90;7.25;;;;;;;3.85;46.38;99681.84;4455939;32;33621;-88
2021/04/05 04:32:23;;;;;;;11.35;6.45;;;;;;;4.01;45.58;99671.97;4468646;32;33427;-91
2021/04/05 04:34:51;;;;;;;12.37;6.72;;;;;;;3.95;45.87;99676.06;4455824;32;33727;-90
2021/04/05 04:37:19;;;;;;;13.43;7.15;;;;;;;3.99;46.13;99673.59;4455431;32;34391;-90
2021/04/05 04:39:46;;;;;;;13.50;7.10;;;;;;;4.07;45.64;99676.38;4455988;32;33384;-90
2021/04/05 04:42:13;;;;;;;16.37;7.25;;;;;;;3.92;46.06;99674.28;4443199;32;32883;-90
2021/04/05 04:44:40;;;;;;;16.02;8.27;;;;;;;4.08;45.62;99678.12;4442941;32;33072;-90
2021/04/05 04:47:08;;;;;;;13.15;7.22;;;;;;;4.08;45.88;99670.41;4443002;32;35030;-88
2021/04/05 04:49:35;;;;;;;15.73;7.68;;;;;;;4.14;45.87;99661.97;4455739;32;34339;-90
2021/04/05 04:52:03;;;;;;;12.88;7.95;;;;;;;4.12;46.03;99669.62;4443150;32;32854;-88
2021/04/05 04:54:30;;;;;;;14.75;7.57;;;;;;;4.09;46.21;99674.69;4468668;32;34046;-88
2021/04/05 04:56:57;;;;;;;22.60;10.88;;;;;;;4.12;45.88;99677.34;4456012;32;35735;-88
2021/04/05 04:59:26;;;;;;;19.83;11.63;;;;;;;4.12;45.88;99670.50;4468537;32;34118;-88
2021/04/05 05:01:54;;;;;;;24.55;11.95;;;;;;;4.32;45.53;99663.25;4455918;32;33793;-88
2021/04/05 05:04:26;;;;;;;18.30;10.65;;;;;;;4.19;45.61;99663.78;4468775;32;34086;-88
2021/04/05 05:06:57;;;;;;;18.90;9.85;;;;;;;4.40;45.43;99668.53;4455926;32;34416;-90
2021/04/05 05:09:25;;;;;;;18.87;9.35;;;;;;;4.25;45.23;99658.78;4455842;32;33959;-87
2021/04/05 05:11:53;;;;;;;19.30;9.75;;;;;;;4.55;44.81;99661.16;4442688;32;32700;-90
2021/04/05 05:14:20;;;;;;;15.98;8.32;;;;;;;4.69;44.69;99660.59;4442965;32;33133;-90
2021/04/05 05:16:48;;;;;;;17.95;9.02;;;;;;;4.85;43.97;99660.94;4455481;32;34505;-90
2021/04/05 05:19:15;;;;;;;18.95;8.68;;;;;;;5.07;43.74;99660.50;4455184;32;34578;-89
2021/04/05 05:21:49;;;;;;;16.70;8.32;;;;;;;5.03;43.39;99662.16;4455322;32;33143;-90
2021/04/05 05:24:20;;;;;;;20.58;9.55;;;;;;;5.28;43.11;99660.91;4455882;32;33860;-89
2021/04/05 05:26:49;;;;;;;14.82;8.65;;;;;;;5.48;42.61;99651.81;4467951;32;34465;-89
2021/04/05 05:29:21;;;;;;;16.40;9.48;;;;;;;5.54;42.78;99654.50;4454973;32;34429;-89
2021/04/05 05:31:49;;;;;;;22.30;9.40;;;;;;;5.73;42.77;99648.81;4455818;32;34440;-90
2021/04/05 05:34:19;;;;;;;37.42;16.40;;;;;;;5.89;42.86;99645.69;4455077;32;33237;-90
2021/04/05 05:36:48;;;;;;;206.93;82.30;;;;;;;6.28;41.59;99644.53;4467476;32;34942;-88
2021/04/05 05:39:18;;;;;;;148.10;63.42;;;;;;;6.58;40.67;99638.09;4454746;32;33901;-88
2021/04/05 05:41:54;;;;;;;97.37;41.72;;;;;;;6.72;39.99;99643.44;4454570;32;33661;-90
2021/04/05 05:44:45;;;;;;;61.50;27.85;;;;;;;6.87;40.20;99642.75;4467433;32;34143;-90
2021/04/05 05:47:26;;;;;;;23.70;12.77;;;;;;;7.11;40.47;99646.47;4442362;32;34839;-90
2021/04/05 05:50:12;;;;;;;20.67;10.35;;;;;;;7.34;40.07;99641.56;4441798;32;33502;-90
2021/04/05 05:53:03;;;;;;;20.37;10.18;;;;;;;7.60;39.40;99629.72;4441429;32;34041;-90
2021/04/05 05:55:49;;;;;;;20.33;10.63;;;;;;;7.94;37.98;99639.50;4441222;32;33588;-90
2021/04/05 05:58:38;;;;;;;21.98;10.75;;;;;;;8.21;37.38;99641.41;4466693;32;34595;-90
2021/04/05 06:01:09;;;;;;;17.73;9.73;;;;;;;8.30;37.51;99631.16;4453695;32;34851;-90
2021/04/05 06:03:49;;;;;;;18.73;9.07;;;;;;;8.63;36.88;99622.69;4453739;32;32997;-90
2021/04/05 06:06:19;;;;;;;20.20;9.25;;;;;;;8.73;37.30;99622.75;4467271;32;35121;-90
2021/04/05 06:09:25;;;;;;;19.37;9.27;;;;;;;8.95;36.82;99622.81;4467173;32;34568;-89
2021/04/05 06:12:06;;;;;;;20.50;10.32;;;;;;;9.13;36.12;99615.94;4427052;32;34542;-89
2021/04/05 06:14:58;;;;;;;22.60;9.90;;;;;;;9.19;36.30;99616.00;4453518;32;34124;-89
2021/04/05 06:17:31;;;;;;;20.63;8.93;;;;;;;9.42;35.69;99601.31;4467263;32;33953;-90
2021/04/05 06:20:07;;;;;;;17.52;8.48;;;;;;;9.48;36.62;99595.28;4465836;32;34419;-90
2021/04/05 06:22:37;;;;;;;14.93;7.43;;;;;;;9.78;35.87;99586.59;4467129;32;34295;-90
2021/04/05 06:25:24;;;;;;;8.52;4.75;;;;;;;10.15;35.14;99585.72;4467381;32;32991;-90
2021/04/05 06:27:54;;;;;;;6.43;4.12;;;;;;;10.17;35.27;99579.66;4468320;32;33719;-90
2021/04/05 06:30:59;;;;;;;5.93;3.70;;;;;;;10.39;34.79;99583.06;4455168;32;35696;-90
2021/04/05 06:33:34;;;;;;;4.93;3.30;;;;;;;10.73;34.23;99576.88;4468126;32;33477;-90
2021/04/05 06:36:21;;;;;;;5.10;3.08;;;;;;;10.81;33.75;99569.94;4443039;32;33752;-89
2021/04/05 06:38:55;;;;;;;7.43;3.62;;;;;;;10.70;33.44;99578.62;4455046;32;33581;-90
2021/04/05 06:41:39;;;;;;;4.45;3.40;;;;;;;10.80;33.94;99567.31;4455328;32;35290;-90
2021/04/05 06:44:12;;;;;;;5.45;2.90;;;;;;;10.93;33.36;99553.38;4455192;32;34126;-90
2021/04/05 06:47:18;;;;;;;5.22;3.15;;;;;;;11.00;33.21;99557.69;4455320;32;32966;-90
2021/04/05 06:50:25;;;;;;;7.10;3.58;;;;;;;11.41;32.80;99547.00;4438761;32;33864;-89
2021/04/05 06:53:17;;;;;;;6.45;3.35;;;;;;;11.63;32.44;99545.94;4469592;32;35729;-91
2021/04/05 06:55:55;;;;;;;6.37;3.28;;;;;;;11.78;31.49;99542.34;4467697;32;33915;-92
2021/04/05 06:58:37;;;;;;;7.68;4.00;;;;;;;11.94;31.20;99543.94;4454484;32;33099;-91
2021/04/05 07:01:08;;;;;;;5.80;3.92;;;;;;;11.63;31.83;99548.53;4454844;32;35545;-91
2021/04/05 07:03:53;;;;;;;5.62;3.50;;;;;;;11.81;30.73;99542.34;4454646;32;34862;-88
2021/04/05 07:07:14;;;;;;;6.35;4.28;;;;;;;12.03;30.82;99541.22;4444643;32;34789;-91
2021/04/05 07:09:46;;;;;;;8.13;4.97;;;;;;;11.95;31.51;99543.06;4406497;32;34027;-90
2021/04/05 07:12:27;;;;;;;7.78;4.15;;;;;;;12.10;31.12;99542.91;4381603;32;34681;-91
2021/04/05 07:15:12;;;;;;;10.57;5.00;;;;;;;11.89;31.79;99536.16;4427356;32;33842;-92
2021/04/05 07:18:14;;;;;;;8.13;4.68;;;;;;;11.87;32.29;99537.06;4457773;32;33582;-91
2021/04/05 07:20:57;;;;;;;6.57;4.70;;;;;;;12.20;32.84;99534.09;4457590;32;34062;-91
2021/04/05 07:24:20;;;;;;;11.30;5.35;;;;;;;12.12;32.08;99525.53;4411728;32;34809;-92
2021/04/05 07:27:05;;;;;;;13.10;6.40;;;;;;;12.30;32.79;99517.47;4411491;32;33994;-93
2021/04/05 07:29:54;;;;;;;13.85;6.80;;;;;;;12.04;33.55;99520.37;4410251;32;33858;-92
2021/04/05 07:32:29;;;;;;;12.93;5.53;;;;;;;12.33;33.57;99517.47;4422635;32;32647;-91
2021/04/05 07:35:10;;;;;;;8.65;5.25;;;;;;;12.20;34.52;99521.06;4409400;32;34389;-92
2021/04/05 07:38:08;;;;;;;6.93;5.00;;;;;;;11.95;36.01;99519.63;4408878;32;34242;-92
2021/04/05 07:40:57;;;;;;;7.50;5.07;;;;;;;12.22;35.38;99506.28;4409119;32;33723;-92
2021/04/05 07:44:15;;;;;;;6.72;4.78;;;;;;;12.47;34.86;99510.34;4411644;32;32883;-94
2021/04/05 07:46:48;;;;;;;6.43;4.53;;;;;;;12.68;34.42;99504.84;4405467;32;33194;-91
2021/04/05 07:49:28;;;;;;;7.68;4.78;;;;;;;12.23;34.46;99508.00;4397475;32;33981;-91
2021/04/05 07:52:00;;;;;;;8.48;4.65;;;;;;;12.41;34.87;99502.56;4397029;32;33361;-90
2021/04/05 07:54:32;;;;;;;7.43;4.80;;;;;;;12.67;34.41;99492.66;4434171;32;33836;-90
2021/04/05 07:57:28;;;;;;;6.37;3.72;;;;;;;12.68;34.61;99485.69;4410542;32;33266;-89
2021/04/05 08:00:13;;;;;;;6.95;4.28;;;;;;;12.83;33.87;99483.75;4422967;32;34095;-91
2021/04/05 08:02:56;;;;;;;10.90;4.60;;;;;;;13.04;33.35;99486.91;4423260;32;34030;-89
2021/04/05 08:05:22;;;;;;;;;;;;;;;13.03;33.27;99486.06;4423697;32;33484;-89
2021/04/05 08:07:53;;;;;;;6.25;3.83;;;;;;;12.99;32.97;99489.59;4423517;32;34813;-89
2021/04/05 08:10:29;;;;;;;5.65;4.30;;;;;;;13.00;32.65;99480.91;4423611;32;34885;-89
2021/04/05 08:13:31;;;;;;;12.48;3.70;;;;;;;13.22;31.98;99481.44;4409859;32;34915;-89
2021/04/05 08:16:08;;;;;;;7.05;3.58;;;;;;;13.27;32.78;99480.50;4422146;32;33213;-90
2021/04/05 08:18:38;;;;;;;5.12;3.55;;;;;;;13.55;31.49;99480.88;4410067;32;33773;-89
2021/04/05 08:21:11;;;;;;;6.65;3.30;;;;;;;13.61;31.36;99480.78;4395597;32;34241;-90
2021/04/05 08:23:38;;;;;;;;;;;;;;;13.79;31.66;99470.00;4421285;32;35297;-88
2021/04/05 08:26:25;;;;;;;3.90;2.95;;;;;;;13.66;31.92;99473.75;4423310;32;33324;-88
2021/04/05 08:29:16;;;;;;;6.28;3.60;;;;;;;13.78;31.42;99460.47;4432862;32;34144;-88
2021/04/05 08:32:09;;;;;;;9.13;3.12;;;;;;;13.67;31.04;99458.94;4421983;32;34305;-87
2021/04/05 08:35:16;;;;;;;9.45;4.55;;;;;;;14.02;29.24;99457.38;4422973;32;35262;-89
2021/04/05 08:37:59;;;;;;;4.25;2.97;;;;;;;14.05;28.58;99454.69;4407274;32;33345;-89
2021/04/05 08:40:31;;;;;;;4.75;2.95;;;;;;;14.17;28.13;99454.44;4410306;32;33838;-91
2021/04/05 08:43:29;;;;;;;4.25;2.70;;;;;;;14.02;29.30;99451.28;4398148;32;33896;-89
2021/04/05 08:46:11;;;;;;;3.25;2.60;;;;;;;14.15;28.94;99448.38;4422749;32;34624;-88
2021/04/05 08:48:40;;;;;;;9.65;2.95;;;;;;;14.24;28.70;99448.19;4423016;32;34106;-90
2021/04/05 08:51:20;;;;;;;4.22;2.78;;;;;;;14.57;27.69;99440.56;4410361;32;34526;-91
2021/04/05 08:53:51;;;;;;;5.32;2.42;;;;;;;14.34;27.48;99429.72;4422943;32;34413;-88
2021/04/05 08:56:20;;;;;;;5.87;2.45;;;;;;;14.63;26.83;99433.44;4409790;32;33966;-92
2021/04/05 08:59:05;;;;;;;3.30;2.20;;;;;;;14.57;27.43;99430.09;4397994;32;32708;-91
2021/04/05 09:02:00;;;;;;;5.93;2.25;;;;;;;14.57;26.76;99414.41;4409203;32;34002;-95
2021/04/05 09:04:39;;;;;;;4.70;2.10;;;;;;;14.71;32.15;99404.47;4346045;32;34988;-92
2021/04/05 09:07:38;;;;;;;2.78;2.20;;;;;;;15.23;26.20;99412.81;4356981;32;34380;-90
2021/04/05 09:10:46;;;;;;;3.15;2.08;;;;;;;15.39;26.08;99403.66;4317655;33;33204;-93
2021/04/05 09:13:28;;;;;;;3.22;2.20;;;;;;;15.57;25.14;99403.19;4332170;33;34106;-93
2021/04/05 09:16:17;;;;;;;5.05;2.25;;;;;;;15.42;24.98;99402.72;4333131;33;34270;-92
2021/04/05 09:19:12;;;;;;;2.92;1.95;;;;;;;15.41;24.84;99398.37;4344445;33;34690;-92
2021/04/05 09:22:17;;;;;;;3.08;2.12;;;;;;;15.32;25.89;99391.63;4343263;33;34335;-91
2021/04/05 09:24:58;;;;;;;4.90;2.08;;;;;;;15.56;24.88;99382.28;4332383;33;34469;-89
2021/04/05 09:27:37;;;;;;;2.72;1.90;;;;;;;15.27;24.87;99385.63;4345639;33;34028;-91
2021/04/05 09:30:27;;;;;;;5.07;2.30;;;;;;;15.63;25.25;99375.97;4344321;33;33774;-88
2021/04/05 09:33:31;;;;;;;5.45;1.85;;;;;;;15.50;26.20;99375.44;4342270;33;33823;-89
2021/04/05 09:36:21;;;;;;;6.43;2.37;;;;;;;15.95;27.20;99367.22;4342301;33;32405;-91
2021/04/05 09:39:04;;;;;;;5.12;2.28;;;;;;;16.03;24.03;99350.34;4342758;33;34850;-91
2021/04/05 09:41:55;;;;;;;3.85;1.95;;;;;;;16.07;23.85;99346.72;4331304;33;33355;-92
2021/04/05 09:44:26;;;;;;;3.50;1.87;;;;;;;16.07;23.32;99341.47;4343244;33;33084;-92
2021/04/05 09:47:17;;;;;;;3.85;1.98;;;;;;;16.41;23.14;99329.94;4342445;33;34434;-91
2021/04/05 09:50:27;;;;;;;3.75;1.95;;;;;;;15.87;23.03;99319.34;4340805;33;33764;-91
2021/04/05 09:53:31;;;;;;;3.67;1.80;;;;;;;16.09;22.78;99323.06;4330781;33;34288;-92
2021/04/05 09:56:05;;;;;;;3.83;1.87;;;;;;;16.03;23.02;99318.00;4342732;33;32769;-91
2021/04/05 09:58:38;;;;;;;2.92;1.98;;;;;;;16.04;23.35;99314.47;4331463;33;32494;-92
2021/04/05 10:01:14;;;;;;;4.40;1.85;;;;;;;15.78;23.44;99311.75;4334219;33;34656;-92
2021/04/05 10:03:44;;;;;;;4.20;2.55;;;;;;;16.14;22.77;99306.28;4322163;33;33473;-92
2021/04/05 10:06:13;;;;;;;4.95;2.78;;;;;;;16.24;22.61;99309.47;4334050;33;32879;-91
2021/04/05 10:08:42;;;;;;;8.30;2.47;;;;;;;16.33;22.14;99287.34;4338057;32;34159;-92
2021/04/05 10:11:15;;;;;;;3.62;2.12;;;;;;;16.34;22.76;99291.69;4348391;33;34823;-91
2021/04/05 10:13:56;;;;;;;5.05;2.40;;;;;;;16.41;22.54;99278.31;4349057;32;33499;-91
2021/04/05 10:16:29;;;;;;;5.03;2.40;;;;;;;16.27;23.35;99285.78;4348622;32;34280;-92
2021/04/05 10:18:58;;;;;;;4.07;1.73;;;;;;;16.27;23.13;99276.16;4348009;33;33879;-91
2021/04/05 10:21:26;;;;;;;5.03;2.30;;;;;;;16.34;22.96;99271.56;4347668;32;33652;-92
2021/04/05 10:23:56;;;;;;;3.83;2.30;;;;;;;16.51;22.69;99271.91;4347952;32;33484;-92
2021/04/05 10:26:29;;;;;;;4.03;2.37;;;;;;;16.81;22.41;99268.25;4347876;32;32956;-92
2021/04/05 10:29:02;;;;;;;3.83;2.15;;;;;;;16.91;21.96;99266.19;4348474;32;33154;-92
2021/04/05 10:31:30;;;;;;;3.33;1.58;;;;;;;17.07;21.89;99256.03;4360849;32;35316;-92
2021/04/05 10:34:03;;;;;;;4.62;2.17;;;;;;;17.15;22.00;99253.97;4348049;32;34731;-91
2021/04/05 10:36:41;;;;;;;4.97;2.60;;;;;;;17.11;21.79;99252.38;4348013;32;34156;-92
2021/04/05 10:39:08;;;;;;;8.80;2.17;;;;;;;16.97;22.80;99250.22;4348505;32;33286;-93
2021/04/05 10:41:42;;;;;;;4.43;2.00;;;;;;;17.04;21.75;99246.47;4348831;33;34017;-94
2021/04/05 10:44:13;;;;;;;5.07;2.30;;;;;;;17.09;21.83;99246.31;4359815;32;34327;-86
2021/04/05 10:46:43;;;;;;;8.07;2.65;;;;;;;16.94;21.14;99237.19;4336289;33;33234;-94
2021/04/05 10:49:33;;;;;;;3.37;1.87;;;;;;;16.21;22.10;99236.97;4342787;33;33665;-95
2021/04/05 10:52:35;;;;;;;2.40;1.62;;;;;;;16.30;21.98;99214.84;4386705;32;34754;-92
2021/04/05 10:55:03;;;;;;;3.55;1.98;;;;;;;16.08;22.08;99205.94;4365743;32;33521;-94
2021/04/05 10:57:33;;;;;;;5.07;2.00;;;;;;;16.06;22.92;99221.72;4366091;32;32858;-95
2021/04/05 11:00:38;;;;;;;2.53;1.80;;;;;;;16.71;21.65;99195.13;4347765;33;34153;-94
2021/04/05 11:03:20;;;;;;;3.05;1.98;;;;;;;16.70;22.22;99193.37;4349317;32;34658;-95
2021/04/05 11:05:58;;;;;;;3.80;2.05;;;;;;;16.85;21.98;99192.87;4360676;32;35281;-93
2021/04/05 11:08:36;;;;;;;5.40;1.95;;;;;;;16.74;22.48;99189.72;4349246;33;32794;-94
2021/04/05 11:11:29;;;;;;;4.30;2.78;;;;;;;16.76;22.07;99180.91;4348157;33;33487;-90
2021/04/05 11:14:09;;;;;;;2.85;1.70;;;;;;;16.82;21.21;99185.94;4361424;32;33870;-94
2021/04/05 11:16:57;;;;;;;4.15;1.87;;;;;;;16.79;21.91;99165.03;4373140;32;34652;-93
2021/04/05 11:19:36;;;;;;;2.80;2.15;;;;;;;16.48;21.72;99155.59;4387652;32;33327;-92
2021/04/05 11:22:04;;;;;;;3.92;2.10;;;;;;;16.67;21.03;99154.09;4362537;32;32897;-94
2021/04/05 11:24:35;;;;;;;2.85;1.90;;;;;;;16.32;21.57;99141.28;4387595;32;35184;-91
2021/04/05 11:27:09;;;;;;;2.75;2.00;;;;;;;16.50;21.92;99135.41;4363275;32;34475;-93
2021/04/05 11:29:49;;;;;;;5.93;2.20;;;;;;;16.62;21.86;99128.00;4373150;32;33601;-93
2021/04/05 11:32:32;;;;;;;4.80;2.30;;;;;;;16.87;22.04;99121.00;4363262;32;33219;-93
2021/04/05 11:35:15;;;;;;;2.53;1.90;;;;;;;16.75;21.93;99110.06;4352322;32;34290;-94
2021/04/05 11:37:48;;;;;;;3.77;1.90;;;;;;;16.88;21.81;99100.81;4352388;32;33235;-92
2021/04/05 11:40:29;;;;;;;3.55;2.22;;;;;;;17.14;21.99;99098.06;4352620;32;32594;-93
2021/04/05 11:43:02;;;;;;;6.93;2.78;;;;;;;17.02;22.43;99093.28;4352321;32;34170;-92
2021/04/05 11:45:32;;;;;;;3.75;2.20;;;;;;;17.05;21.97;99085.28;4339226;32;33805;-91
2021/04/05 11:48:03;;;;;;;2.62;2.05;;;;;;;16.74;22.33;99082.06;4351536;32;33830;-94
2021/04/05 11:50:51;;;;;;;3.65;2.40;;;;;;;17.21;21.81;99083.78;4343239;32;33792;-94
2021/04/05 11:53:23;;;;;;;4.40;2.35;;;;;;;16.90;21.64;99084.09;4351329;32;34560;-93
2021/04/05 11:56:14;;;;;;;;;;;;;;;16.58;22.26;99075.66;4363483;32;34532;-93
2021/04/05 11:58:47;;;;;;;3.45;2.10;;;;;;;17.03;22.69;99075.75;4363166;32;34272;-92
2021/04/05 12:01:17;;;;;;;3.67;2.03;;;;;;;17.17;22.29;99076.94;4338197;32;32924;-91
2021/04/05 12:03:53;;;;;;;4.45;1.98;;;;;;;17.48;21.07;99063.47;4338592;32;34370;-93
2021/04/05 12:06:44;;;;;;;3.05;1.45;;;;;;;17.34;21.25;99073.66;4363205;32;34978;-94
2021/04/05 12:09:41;;;;;;;3.92;1.48;;;;;;;17.37;20.90;99060.41;4346472;33;33799;-92
2021/04/05 12:12:16;;;;;;;2.05;1.42;;;;;;;17.33;20.91;99053.56;4360646;32;33284;-92
2021/04/05 12:14:44;;;;;;;3.78;2.28;;;;;;;17.34;21.59;99034.25;4361009;32;33526;-94
2021/04/05 12:17:13;;;;;;;5.20;1.95;;;;;;;17.52;21.54;99016.00;4361302;32;34868;-92